Time;durP1;ratioP1;P1;durP2;ratioP2;P2;SDS_P1;SDS_P2;PMS_P1;PMS_P2;Temp;Humidity;BMP_temperature;BMP_pressure;BME280_temperature;BME280_humidity;BME280_pressure;Samples;Min_cycle;Max_cycle;Signal;HPM_P1;HPM_P2
2021/10/10 00:00:49;;;;;;;169.43;67.32;;;;;;;;;;5116629;28;20028;-63
2021/10/10 00:03:14;;;;;;;50.58;24.08;;;;;;;;;;5116640;28;20063;-63
2021/10/10 00:05:40;;;;;;;58.10;22.35;;;;;;;;;;5116350;28;20102;-62
2021/10/10 00:08:06;;;;;;;19.23;12.38;;;;;;;;;;5116340;28;20071;-63
2021/10/10 00:10:32;;;;;;;51.63;22.02;;;;;;;;;;5116532;28;20085;-62
2021/10/10 00:12:57;;;;;;;57.00;20.50;;;;;;;;;;5116118;28;20046;-63
2021/10/10 00:15:23;;;;;;;20.27;12.00;;;;;;;;;;5116293;28;20518;-62
2021/10/10 00:17:48;;;;;;;76.80;26.33;;;;;;;;;;5116027;28;20039;-62
2021/10/10 00:20:14;;;;;;;109.95;36.13;;;;;;;;;;5116188;28;20019;-63
2021/10/10 00:22:40;;;;;;;22.40;12.32;;;;;;;;;;5116083;28;20092;-62
2021/10/10 00:25:07;;;;;;;94.97;31.58;;;;;;;;;;5116186;28;20027;-62
2021/10/10 00:27:32;;;;;;;39.72;18.27;;;;;;;;;;5097848;28;20046;-62
2021/10/10 00:30:00;;;;;;;24.63;12.90;;;;;;;;;;5115676;28;20048;-62
2021/10/10 00:32:25;;;;;;;35.70;15.73;;;;;;;;;;5115808;28;20054;-63
2021/10/10 00:34:51;;;;;;;19.73;11.05;;;;;;;;;;5115951;28;20467;-62
2021/10/10 00:37:16;;;;;;;52.15;22.95;;;;;;;;;;5115840;28;20039;-62
2021/10/10 00:39:42;;;;;;;62.15;25.45;;;;;;;;;;5115973;28;20540;-62
2021/10/10 00:42:09;;;;;;;15.38;11.00;;;;;;;;;;5097315;28;20039;-62
2021/10/10 00:44:35;;;;;;;48.00;22.23;;;;;;;;;;5115737;28;20042;-61
2021/10/10 00:47:01;;;;;;;61.30;28.40;;;;;;;;;;5115781;28;20531;-61
2021/10/10 00:49:26;;;;;;;27.50;15.57;;;;;;;;;;5115604;28;20478;-61
2021/10/10 00:51:53;;;;;;;44.38;21.10;;;;;;;;;;5115488;28;20067;-61
2021/10/10 00:54:18;;;;;;;18.48;11.55;;;;;;;;;;5115683;28;20038;-62
2021/10/10 00:56:45;;;;;;;23.08;14.43;;;;;;;;;;5115584;28;20542;-62
2021/10/10 00:59:12;;;;;;;30.15;16.00;;;;;;;;;;5115663;28;20072;-62
2021/10/10 01:01:39;;;;;;;32.83;14.95;;;;;;;;;;5115616;28;20040;-62
2021/10/10 01:04:04;;;;;;;17.92;11.98;;;;;;;;;;5115350;28;20067;-62
2021/10/10 01:06:30;;;;;;;17.52;10.13;;;;;;;;;;5097204;28;20062;-62
2021/10/10 01:08:56;;;;;;;18.02;11.38;;;;;;;;;;5097175;28;20039;-62
2021/10/10 01:11:25;;;;;;;18.13;11.18;;;;;;;;;;5115139;28;20044;-62
2021/10/10 01:13:51;;;;;;;14.93;9.65;;;;;;;;;;5115073;28;20070;-62
2021/10/10 01:16:16;;;;;;;15.23;9.93;;;;;;;;;;5115170;28;20479;-62
2021/10/10 01:18:42;;;;;;;15.32;10.45;;;;;;;;;;5115055;28;20024;-63
2021/10/10 01:21:08;;;;;;;18.75;10.45;;;;;;;;;;5096984;28;20063;-63
2021/10/10 01:23:34;;;;;;;19.15;10.30;;;;;;;;;;5114861;28;20027;-63
2021/10/10 01:25:59;;;;;;;16.02;10.45;;;;;;;;;;5114935;28;20043;-62
2021/10/10 01:28:25;;;;;;;14.52;9.25;;;;;;;;;;5114698;28;20034;-62
2021/10/10 01:30:50;;;;;;;15.38;9.98;;;;;;;;;;5106586;28;20043;-63
2021/10/10 01:33:17;;;;;;;18.40;9.88;;;;;;;;;;5114736;28;20039;-63
2021/10/10 01:35:43;;;;;;;15.45;10.02;;;;;;;;;;5114892;28;20035;-62
2021/10/10 01:38:09;;;;;;;14.55;10.25;;;;;;;;;;5115116;28;20031;-62
2021/10/10 01:40:35;;;;;;;17.60;10.25;;;;;;;;;;5114898;28;20040;-62
2021/10/10 01:43:04;;;;;;;15.35;10.20;;;;;;;;;;5114922;28;20035;-62
2021/10/10 01:45:29;;;;;;;13.93;9.57;;;;;;;;;;5114025;28;20118;-62
2021/10/10 01:47:57;;;;;;;15.48;10.25;;;;;;;;;;5114276;28;20067;-63
2021/10/10 01:50:24;;;;;;;18.05;10.20;;;;;;;;;;5114950;27;20038;-63
2021/10/10 01:52:52;;;;;;;18.35;10.45;;;;;;;;;;5114652;28;20031;-63
2021/10/10 01:55:19;;;;;;;15.07;10.18;;;;;;;;;;5114510;28;20040;-63
2021/10/10 01:57:45;;;;;;;15.23;9.98;;;;;;;;;;5114723;28;20028;-62
2021/10/10 02:00:11;;;;;;;16.95;9.95;;;;;;;;;;5114692;28;20053;-62
2021/10/10 02:02:39;;;;;;;17.70;11.25;;;;;;;;;;5114798;28;20031;-62
2021/10/10 02:05:05;;;;;;;15.82;9.68;;;;;;;;;;5114650;28;20035;-62
2021/10/10 02:07:32;;;;;;;16.13;10.32;;;;;;;;;;5114041;28;20124;-63
2021/10/10 02:09:58;;;;;;;15.35;9.65;;;;;;;;;;5114274;28;20084;-62
2021/10/10 02:12:23;;;;;;;18.27;10.85;;;;;;;;;;5113833;28;20118;-62
2021/10/10 02:14:49;;;;;;;16.50;9.77;;;;;;;;;;5113948;28;20160;-62
2021/10/10 02:17:16;;;;;;;16.77;9.88;;;;;;;;;;5114279;28;20022;-62
2021/10/10 02:19:42;;;;;;;23.33;10.27;;;;;;;;;;5114068;28;20032;-62
2021/10/10 02:22:08;;;;;;;13.77;9.40;;;;;;;;;;5113840;28;20024;-61
2021/10/10 02:24:34;;;;;;;16.70;10.00;;;;;;;;;;5113835;28;20089;-62
2021/10/10 02:27:00;;;;;;;16.10;10.15;;;;;;;;;;5114305;28;20051;-62
2021/10/10 02:29:26;;;;;;;17.67;10.60;;;;;;;;;;5113397;28;20070;-62
2021/10/10 02:31:52;;;;;;;18.65;10.68;;;;;;;;;;5113823;28;20104;-62
2021/10/10 02:34:18;;;;;;;17.92;10.43;;;;;;;;;;5113905;28;20028;-62
2021/10/10 02:36:44;;;;;;;13.68;9.80;;;;;;;;;;5113800;28;20026;-63
2021/10/10 02:39:10;;;;;;;15.45;10.55;;;;;;;;;;5113756;28;20437;-62
2021/10/10 02:41:35;;;;;;;16.02;10.57;;;;;;;;;;5113814;28;20043;-62
2021/10/10 02:44:03;;;;;;;14.30;10.15;;;;;;;;;;5114248;28;20482;-62
2021/10/10 02:46:29;;;;;;;15.07;9.95;;;;;;;;;;5113813;28;20031;-62
2021/10/10 02:48:55;;;;;;;14.30;10.27;;;;;;;;;;5113827;28;20038;-62
2021/10/10 02:51:21;;;;;;;16.60;10.00;;;;;;;;;;5113701;28;20391;-62
2021/10/10 02:53:47;;;;;;;14.52;9.82;;;;;;;;;;5113419;28;20043;-62
2021/10/10 02:56:13;;;;;;;14.93;10.07;;;;;;;;;;5113797;28;20019;-63
2021/10/10 02:58:42;;;;;;;14.43;9.73;;;;;;;;;;5115591;28;20028;-63
2021/10/10 03:01:08;;;;;;;17.27;10.70;;;;;;;;;;5118306;28;20455;-63
2021/10/10 03:03:33;;;;;;;18.33;11.27;;;;;;;;;;5117757;28;20035;-63
2021/10/10 03:05:59;;;;;;;19.35;10.57;;;;;;;;;;5117718;28;20459;-63
2021/10/10 03:08:24;;;;;;;18.35;10.35;;;;;;;;;;5117808;28;20035;-62
2021/10/10 03:10:51;;;;;;;20.00;10.52;;;;;;;;;;5117726;28;20502;-62
2021/10/10 03:13:16;;;;;;;16.20;10.20;;;;;;;;;;5117672;28;20042;-62
2021/10/10 03:15:42;;;;;;;15.85;10.27;;;;;;;;;;5117304;28;20106;-63
2021/10/10 03:18:08;;;;;;;18.15;10.52;;;;;;;;;;5117600;28;20450;-63
2021/10/10 03:20:35;;;;;;;18.75;10.75;;;;;;;;;;5117674;28;20012;-63
2021/10/10 03:23:00;;;;;;;19.63;10.55;;;;;;;;;;5117304;28;20099;-63
2021/10/10 03:25:26;;;;;;;16.13;10.68;;;;;;;;;;5116959;28;20454;-63
2021/10/10 03:27:52;;;;;;;16.40;10.68;;;;;;;;;;5081914;28;20046;-63
2021/10/10 03:30:18;;;;;;;26.17;15.82;;;;;;;;;;5116608;28;20112;-63
2021/10/10 03:32:43;;;;;;;259.73;138.00;;;;;;;;;;5098478;28;20040;-62
2021/10/10 03:35:09;;;;;;;394.17;221.18;;;;;;;;;;5116914;28;20024;-62
2021/10/10 03:37:36;;;;;;;205.13;112.72;;;;;;;;;;5117192;28;20040;-63
2021/10/10 03:40:05;;;;;;;28.00;15.48;;;;;;;;;;5116846;28;20070;-61
2021/10/10 03:42:31;;;;;;;322.42;175.52;;;;;;;;;;5117005;28;20066;-61
2021/10/10 03:44:57;;;;;;;397.48;201.48;;;;;;;;;;5116822;28;20027;-61
2021/10/10 03:47:23;;;;;;;95.78;45.08;;;;;;;;;;5116969;28;20458;-62
2021/10/10 03:49:48;;;;;;;24.95;14.23;;;;;;;;;;5116980;28;20059;-63
2021/10/10 03:52:15;;;;;;;23.50;13.70;;;;;;;;;;5116850;28;20456;-62
2021/10/10 03:57:20;;;;;;;20.25;13.52;;;;;;;;;;5116750;28;20054;-61
2021/10/10 03:59:48;;;;;;;;;;;;;;;;;;5098762;28;20042;-61
2021/10/10 04:02:14;;;;;;;16.95;10.48;;;;;;;;;;5116567;28;20281;-61
2021/10/10 04:04:41;;;;;;;34.38;17.08;;;;;;;;;;5116770;28;20027;-63
2021/10/10 04:07:06;;;;;;;25.02;15.15;;;;;;;;;;5098361;28;20491;-62
2021/10/10 04:09:32;;;;;;;21.23;12.05;;;;;;;;;;5115996;28;20027;-63
2021/10/10 04:11:57;;;;;;;17.80;11.98;;;;;;;;;;5116088;28;20036;-63
2021/10/10 04:14:23;;;;;;;23.35;12.23;;;;;;;;;;5116371;28;20058;-62
2021/10/10 04:16:49;;;;;;;34.78;17.02;;;;;;;;;;5116530;28;20043;-63
2021/10/10 04:19:14;;;;;;;33.10;15.77;;;;;;;;;;5116118;28;20027;-63
2021/10/10 04:21:40;;;;;;;21.83;13.43;;;;;;;;;;5116664;28;20089;-62
2021/10/10 04:24:06;;;;;;;36.03;18.70;;;;;;;;;;5116301;28;20035;-62
2021/10/10 04:26:31;;;;;;;53.78;24.65;;;;;;;;;;5116109;28;20043;-62
2021/10/10 04:28:57;;;;;;;46.58;26.25;;;;;;;;;;5116073;28;20130;-62
2021/10/10 04:31:22;;;;;;;40.15;20.20;;;;;;;;;;5116094;28;20047;-62
2021/10/10 04:33:50;;;;;;;65.30;27.45;;;;;;;;;;5098477;28;20036;-63
2021/10/10 04:36:16;;;;;;;27.05;15.00;;;;;;;;;;5115815;28;20038;-63
2021/10/10 04:38:42;;;;;;;19.23;12.07;;;;;;;;;;5116279;28;20073;-62
2021/10/10 04:41:08;;;;;;;32.92;16.23;;;;;;;;;;5115567;28;20395;-63
2021/10/10 04:43:34;;;;;;;32.08;14.35;;;;;;;;;;5115509;28;20035;-63
2021/10/10 04:45:59;;;;;;;19.38;11.00;;;;;;;;;;5116112;28;20405;-63
2021/10/10 04:48:25;;;;;;;30.27;15.13;;;;;;;;;;5116027;28;20072;-62
2021/10/10 04:50:52;;;;;;;90.28;33.03;;;;;;;;;;5115337;28;20502;-62
2021/10/10 04:53:18;;;;;;;27.00;14.05;;;;;;;;;;5115177;28;20111;-62
2021/10/10 04:55:44;;;;;;;19.88;11.13;;;;;;;;;;5115874;28;20082;-62
2021/10/10 04:58:09;;;;;;;75.88;28.30;;;;;;;;;;5115986;28;20472;-62
2021/10/10 05:00:35;;;;;;;37.28;17.10;;;;;;;;;;5115710;28;20419;-62
2021/10/10 05:03:00;;;;;;;30.52;15.93;;;;;;;;;;5115586;28;20100;-62
2021/10/10 05:05:27;;;;;;;26.52;14.15;;;;;;;;;;5115299;28;20043;-62
2021/10/10 05:07:53;;;;;;;25.58;12.70;;;;;;;;;;5114845;28;20034;-62
2021/10/10 05:10:20;;;;;;;17.65;10.98;;;;;;;;;;5115234;28;20032;-62
2021/10/10 05:12:45;;;;;;;30.52;13.73;;;;;;;;;;5114690;28;20042;-62
2021/10/10 05:15:12;;;;;;;106.43;45.70;;;;;;;;;;5114339;28;20090;-62
2021/10/10 05:17:39;;;;;;;207.85;87.32;;;;;;;;;;5114703;28;20015;-62
2021/10/10 05:20:04;;;;;;;76.15;25.83;;;;;;;;;;5114045;28;20123;-62
2021/10/10 05:22:30;;;;;;;112.78;35.55;;;;;;;;;;5114121;28;20481;-62
2021/10/10 05:24:58;;;;;;;284.50;113.53;;;;;;;;;;5113876;28;20514;-62
2021/10/10 05:27:23;;;;;;;410.88;124.50;;;;;;;;;;5114424;28;20076;-62
2021/10/10 05:29:49;;;;;;;394.10;103.55;;;;;;;;;;5113917;28;20051;-62
2021/10/10 05:32:14;;;;;;;367.65;94.45;;;;;;;;;;5095894;28;20044;-62
2021/10/10 05:34:40;;;;;;;213.55;57.38;;;;;;;;;;5114548;28;20112;-62
2021/10/10 05:37:05;;;;;;;120.47;37.92;;;;;;;;;;5095831;28;20092;-62
2021/10/10 05:39:33;;;;;;;316.40;152.85;;;;;;;;;;5113964;28;20467;-62
2021/10/10 05:42:00;;;;;;;122.60;56.35;;;;;;;;;;5113970;28;20046;-62
2021/10/10 05:44:26;;;;;;;68.78;25.10;;;;;;;;;;5114054;28;20501;-62
2021/10/10 05:46:52;;;;;;;81.18;31.13;;;;;;;;;;5113922;28;20102;-62
2021/10/10 05:49:18;;;;;;;70.68;32.13;;;;;;;;;;5113578;28;20032;-62
2021/10/10 05:51:46;;;;;;;44.83;21.88;;;;;;;;;;5113862;28;20030;-62
2021/10/10 05:54:13;;;;;;;50.10;35.47;;;;;;;;;;5113666;28;20028;-62
2021/10/10 05:56:39;;;;;;;98.13;44.10;;;;;;;;;;5113590;28;20023;-62
2021/10/10 05:59:06;;;;;;;80.78;35.70;;;;;;;;;;5113839;28;20130;-62
2021/10/10 06:01:32;;;;;;;52.15;22.45;;;;;;;;;;5114343;28;20035;-62
2021/10/10 06:03:57;;;;;;;40.33;18.60;;;;;;;;;;5087659;28;20043;-62
2021/10/10 06:06:24;;;;;;;48.10;19.65;;;;;;;;;;5111957;28;20030;-62
2021/10/10 06:08:51;;;;;;;31.00;17.27;;;;;;;;;;5111156;28;20071;-62
2021/10/10 06:11:16;;;;;;;42.35;19.92;;;;;;;;;;5107428;28;20066;-62
2021/10/10 06:13:42;;;;;;;92.18;34.97;;;;;;;;;;5111195;28;20487;-62
2021/10/10 06:16:08;;;;;;;28.67;15.63;;;;;;;;;;5093693;28;20035;-62
2021/10/10 06:18:33;;;;;;;110.05;34.95;;;;;;;;;;5111086;28;20058;-62
2021/10/10 06:20:59;;;;;;;39.83;18.00;;;;;;;;;;5093532;28;20474;-62
2021/10/10 06:23:25;;;;;;;39.45;19.73;;;;;;;;;;5110127;28;20046;-62
2021/10/10 06:25:50;;;;;;;58.13;26.48;;;;;;;;;;5110797;28;20085;-61
2021/10/10 06:28:16;;;;;;;26.38;15.20;;;;;;;;;;5110864;28;20036;-62
2021/10/10 06:30:41;;;;;;;22.10;12.88;;;;;;;;;;5110412;28;20051;-62
2021/10/10 06:33:07;;;;;;;23.83;13.80;;;;;;;;;;5110522;28;20495;-62
2021/10/10 06:35:32;;;;;;;44.45;25.75;;;;;;;;;;5110743;28;20433;-62
2021/10/10 06:37:58;;;;;;;39.13;25.05;;;;;;;;;;5111335;28;20032;-62
2021/10/10 06:40:24;;;;;;;23.77;14.43;;;;;;;;;;5110796;28;20026;-62
2021/10/10 06:42:55;;;;;;;35.10;18.50;;;;;;;;;;5110632;28;20483;-62
2021/10/10 06:45:21;;;;;;;42.65;23.35;;;;;;;;;;5110734;28;20035;-62
2021/10/10 06:47:46;;;;;;;22.58;13.80;;;;;;;;;;5110786;28;20625;-62
2021/10/10 06:50:12;;;;;;;27.65;17.73;;;;;;;;;;5111082;28;20051;-62
2021/10/10 06:52:38;;;;;;;30.92;18.13;;;;;;;;;;5111045;28;20035;-62
2021/10/10 06:55:03;;;;;;;22.50;14.68;;;;;;;;;;5110430;28;20095;-62
2021/10/10 06:57:29;;;;;;;24.83;16.05;;;;;;;;;;5108572;28;20028;-62
2021/10/10 06:59:58;;;;;;;23.02;14.80;;;;;;;;;;5108517;28;20451;-62
2021/10/10 07:02:23;;;;;;;33.33;16.58;;;;;;;;;;5108705;28;20532;-62
2021/10/10 07:04:50;;;;;;;23.50;13.30;;;;;;;;;;5108410;28;20043;-62
2021/10/10 07:07:16;;;;;;;22.60;14.88;;;;;;;;;;5109586;28;20510;-62
2021/10/10 07:09:41;;;;;;;23.25;13.52;;;;;;;;;;5109535;28;20058;-61
2021/10/10 07:12:07;;;;;;;21.90;14.48;;;;;;;;;;5109754;28;20035;-61
2021/10/10 07:14:32;;;;;;;22.90;13.85;;;;;;;;;;5110066;28;20463;-62
2021/10/10 07:16:58;;;;;;;23.48;14.27;;;;;;;;;;5110587;28;20076;-62
2021/10/10 07:19:26;;;;;;;19.00;13.82;;;;;;;;;;5108437;28;20116;-62
2021/10/10 07:22:00;;;;;;;27.67;16.08;;;;;;;;;;5090195;28;20487;-60
2021/10/10 07:27:10;;;;;;;23.90;13.38;;;;;;;;;;5108998;28;20592;-61
2021/10/10 07:29:36;;;;;;;20.13;13.52;;;;;;;;;;5108795;28;20039;-62
2021/10/10 07:32:02;;;;;;;29.98;14.52;;;;;;;;;;5109254;28;20369;-62
2021/10/10 07:34:29;;;;;;;24.65;14.38;;;;;;;;;;5109067;28;20039;-61
2021/10/10 07:36:54;;;;;;;30.05;16.40;;;;;;;;;;5110009;28;20193;-62
2021/10/10 07:39:21;;;;;;;23.40;13.70;;;;;;;;;;5110358;28;20534;-62
2021/10/10 07:41:46;;;;;;;23.90;14.30;;;;;;;;;;5091254;28;20396;-62
2021/10/10 07:44:13;;;;;;;22.70;13.57;;;;;;;;;;5110963;28;20024;-62
2021/10/10 07:46:40;;;;;;;23.65;14.32;;;;;;;;;;5113641;28;20054;-62
2021/10/10 07:49:08;;;;;;;25.65;16.10;;;;;;;;;;5112501;28;20123;-62
2021/10/10 07:51:34;;;;;;;22.88;13.45;;;;;;;;;;5112219;28;20471;-62
2021/10/10 07:53:59;;;;;;;27.90;16.33;;;;;;;;;;5112372;28;20031;-62
2021/10/10 07:56:26;;;;;;;23.45;13.05;;;;;;;;;;5112548;28;20031;-62
2021/10/10 07:58:51;;;;;;;19.30;11.75;;;;;;;;;;5112334;28;20028;-62
2021/10/10 08:01:17;;;;;;;22.52;12.77;;;;;;;;;;5113369;28;20051;-62
2021/10/10 08:03:43;;;;;;;23.02;12.95;;;;;;;;;;5113203;28;20043;-62
2021/10/10 08:06:09;;;;;;;21.85;12.80;;;;;;;;;;5113226;28;20039;-62
2021/10/10 08:08:35;;;;;;;19.50;12.40;;;;;;;;;;5113236;28;20031;-62
2021/10/10 08:11:01;;;;;;;35.13;22.83;;;;;;;;;;5112778;28;20054;-62
2021/10/10 08:13:26;;;;;;;35.47;27.77;;;;;;;;;;5111984;28;20356;-61
2021/10/10 08:15:52;;;;;;;47.08;28.55;;;;;;;;;;5112637;28;20039;-62
2021/10/10 08:18:17;;;;;;;43.78;24.02;;;;;;;;;;5112887;28;20034;-62
2021/10/10 08:20:43;;;;;;;55.15;35.67;;;;;;;;;;5113290;28;20036;-62
2021/10/10 08:23:09;;;;;;;80.60;41.03;;;;;;;;;;5112768;28;20081;-62
2021/10/10 08:25:35;;;;;;;45.30;25.30;;;;;;;;;;5112999;28;20063;-62
2021/10/10 08:28:00;;;;;;;34.40;21.80;;;;;;;;;;5113034;28;20124;-62
2021/10/10 08:30:26;;;;;;;39.00;19.92;;;;;;;;;;5112341;28;20125;-62
2021/10/10 08:32:52;;;;;;;35.42;22.35;;;;;;;;;;5112165;28;20047;-62
2021/10/10 08:35:18;;;;;;;37.38;19.08;;;;;;;;;;5112300;28;20039;-62
2021/10/10 08:37:43;;;;;;;33.78;20.63;;;;;;;;;;5094009;28;20046;-62
2021/10/10 08:40:09;;;;;;;29.73;16.88;;;;;;;;;;5111795;28;20036;-62
2021/10/10 08:42:39;;;;;;;34.88;20.48;;;;;;;;;;5111799;28;20115;-62
2021/10/10 08:45:10;;;;;;;27.95;16.08;;;;;;;;;;5109327;28;20043;-62
2021/10/10 08:47:43;;;;;;;26.25;16.13;;;;;;;;;;5110944;28;20067;-62
2021/10/10 08:50:18;;;;;;;25.73;15.07;;;;;;;;;;5112122;28;20067;-62
2021/10/10 08:52:44;;;;;;;22.73;13.13;;;;;;;;;;5111508;28;20031;-62
2021/10/10 08:55:10;;;;;;;47.58;21.17;;;;;;;;;;5111226;28;20028;-62
2021/10/10 08:57:36;;;;;;;42.97;21.98;;;;;;;;;;5112663;28;20043;-61
2021/10/10 09:00:06;;;;;;;53.47;31.50;;;;;;;;;;5112096;28;20028;-61
2021/10/10 09:02:33;;;;;;;60.15;24.80;;;;;;;;;;5112876;28;20138;-61
2021/10/10 09:05:03;;;;;;;72.47;25.23;;;;;;;;;;5112050;28;20379;-62
2021/10/10 09:07:29;;;;;;;68.32;37.08;;;;;;;;;;5112529;28;20040;-61
2021/10/10 09:09:55;;;;;;;35.58;23.67;;;;;;;;;;5112227;28;20181;-62
2021/10/10 09:12:27;;;;;;;29.45;17.88;;;;;;;;;;5111908;28;20124;-62
2021/10/10 09:14:53;;;;;;;25.60;16.10;;;;;;;;;;5111970;28;20031;-62
2021/10/10 09:17:19;;;;;;;82.38;49.80;;;;;;;;;;5111759;28;20019;-62
2021/10/10 09:19:50;;;;;;;21.98;12.85;;;;;;;;;;5093618;28;20039;-62
2021/10/10 09:22:15;;;;;;;55.80;31.08;;;;;;;;;;5111860;28;20430;-62
2021/10/10 09:24:41;;;;;;;60.72;32.88;;;;;;;;;;5111158;28;20024;-61
2021/10/10 09:27:10;;;;;;;34.13;19.13;;;;;;;;;;5111060;28;20039;-61
2021/10/10 09:29:37;;;;;;;35.53;22.17;;;;;;;;;;5110665;28;20049;-62
2021/10/10 09:32:07;;;;;;;17.27;11.30;;;;;;;;;;5110936;28;20050;-61
2021/10/10 09:34:34;;;;;;;35.88;16.33;;;;;;;;;;5108977;28;20483;-61
2021/10/10 09:37:06;;;;;;;21.95;12.45;;;;;;;;;;5111225;28;20020;-62
2021/10/10 09:39:45;;;;;;;18.73;10.13;;;;;;;;;;5108473;28;20035;-62
2021/10/10 09:42:10;;;;;;;27.98;15.50;;;;;;;;;;5108376;28;20032;-62
2021/10/10 09:44:49;;;;;;;20.08;11.18;;;;;;;;;;5110849;28;20028;-62
2021/10/10 09:47:17;;;;;;;25.73;16.85;;;;;;;;;;5111347;28;20035;-61
2021/10/10 09:49:43;;;;;;;27.85;14.85;;;;;;;;;;5110971;28;20031;-61
2021/10/10 09:52:08;;;;;;;13.35;8.70;;;;;;;;;;5111011;28;20035;-61
2021/10/10 09:54:53;;;;;;;20.75;12.13;;;;;;;;;;5110072;28;20032;-62
2021/10/10 09:57:19;;;;;;;26.05;18.15;;;;;;;;;;5110483;28;20042;-62
2021/10/10 09:59:45;;;;;;;12.68;9.43;;;;;;;;;;5111387;28;20039;-62
2021/10/10 10:02:11;;;;;;;37.28;17.92;;;;;;;;;;5110863;28;20509;-62
2021/10/10 10:04:50;;;;;;;25.38;15.52;;;;;;;;;;5110622;28;20031;-62
2021/10/10 10:07:19;;;;;;;62.72;26.58;;;;;;;;;;5110538;28;20184;-62
2021/10/10 10:09:51;;;;;;;52.25;22.13;;;;;;;;;;5110817;28;20123;-62
2021/10/10 10:12:19;;;;;;;25.85;14.27;;;;;;;;;;5111068;28;20412;-61
2021/10/10 10:15:05;;;;;;;16.33;9.40;;;;;;;;;;5111099;28;20028;-62
2021/10/10 10:17:32;;;;;;;32.30;17.45;;;;;;;;;;5110191;28;20552;-61
2021/10/10 10:20:00;;;;;;;21.20;13.63;;;;;;;;;;5110936;28;20028;-61
2021/10/10 10:22:26;;;;;;;21.00;11.55;;;;;;;;;;5111083;28;20043;-61
2021/10/10 10:24:51;;;;;;;54.03;32.10;;;;;;;;;;5110713;28;20036;-61
2021/10/10 10:27:17;;;;;;;13.35;8.23;;;;;;;;;;5091713;28;20088;-62
2021/10/10 10:29:44;;;;;;;20.83;12.43;;;;;;;;;;5110171;28;20047;-62
2021/10/10 10:32:10;;;;;;;14.95;8.80;;;;;;;;;;5109894;28;20146;-62
2021/10/10 10:34:37;;;;;;;40.10;21.95;;;;;;;;;;5091965;28;20055;-62
2021/10/10 10:37:03;;;;;;;17.52;9.48;;;;;;;;;;5109978;28;20053;-62
2021/10/10 10:39:32;;;;;;;31.30;16.67;;;;;;;;;;5092325;28;20485;-62
2021/10/10 10:41:57;;;;;;;10.02;6.07;;;;;;;;;;5110478;28;20036;-62
2021/10/10 10:44:36;;;;;;;8.77;5.70;;;;;;;;;;5110390;28;20035;-62
2021/10/10 10:47:12;;;;;;;11.20;6.32;;;;;;;;;;5110754;28;20054;-62
2021/10/10 10:49:46;;;;;;;14.20;7.72;;;;;;;;;;5110479;28;20039;-62
2021/10/10 10:52:35;;;;;;;15.02;8.02;;;;;;;;;;5110817;28;20376;-62
2021/10/10 10:55:14;;;;;;;10.48;5.93;;;;;;;;;;5095986;28;20051;-62
2021/10/10 10:57:43;;;;;;;12.43;6.32;;;;;;;;;;5090550;28;20498;-62
2021/10/10 11:00:09;;;;;;;9.60;6.03;;;;;;;;;;5110022;28;20028;-62
2021/10/10 11:02:54;;;;;;;16.08;7.93;;;;;;;;;;5109319;28;20467;-62
2021/10/10 11:05:40;;;;;;;15.32;7.68;;;;;;;;;;5106793;28;20036;-62
2021/10/10 11:08:17;;;;;;;19.85;12.15;;;;;;;;;;5108996;28;20039;-62
2021/10/10 11:11:02;;;;;;;13.60;7.30;;;;;;;;;;5109472;28;20039;-62
2021/10/10 11:13:35;;;;;;;15.32;8.45;;;;;;;;;;5119763;28;20035;-62
2021/10/10 11:16:30;;;;;;;15.07;8.32;;;;;;;;;;5119577;28;20044;-62
2021/10/10 11:19:04;;;;;;;11.15;7.32;;;;;;;;;;5104690;27;20393;-62
2021/10/10 11:21:35;;;;;;;9.68;6.30;;;;;;;;;;5124783;27;20045;-63
2021/10/10 11:24:02;;;;;;;17.25;9.90;;;;;;;;;;5121597;27;20485;-63
2021/10/10 11:26:29;;;;;;;12.27;6.60;;;;;;;;;;5114338;28;20118;-62
2021/10/10 11:28:56;;;;;;;10.25;6.30;;;;;;;;;;5114614;28;20043;-62
2021/10/10 11:31:25;;;;;;;14.70;7.43;;;;;;;;;;5114373;28;20048;-62
2021/10/10 11:33:56;;;;;;;12.65;6.88;;;;;;;;;;5095862;28;20047;-62
2021/10/10 11:36:34;;;;;;;12.45;6.88;;;;;;;;;;5114388;28;20032;-62
2021/10/10 11:39:00;;;;;;;9.15;5.43;;;;;;;;;;5114452;28;20450;-62
2021/10/10 11:41:27;;;;;;;9.73;6.32;;;;;;;;;;5113212;28;20034;-62
2021/10/10 11:44:03;;;;;;;9.20;6.22;;;;;;;;;;5110136;28;20043;-62
2021/10/10 11:46:48;;;;;;;7.88;5.55;;;;;;;;;;5113854;28;20049;-62
2021/10/10 11:49:21;;;;;;;14.25;6.93;;;;;;;;;;5113925;28;20047;-62
2021/10/10 11:51:50;;;;;;;18.35;9.93;;;;;;;;;;5113464;28;20051;-61
2021/10/10 11:54:26;;;;;;;10.07;5.57;;;;;;;;;;5113155;28;20028;-61
2021/10/10 11:56:57;;;;;;;10.48;5.30;;;;;;;;;;5110192;28;20031;-61
2021/10/10 11:59:22;;;;;;;;;;;;;;;;;;5113597;28;20391;-62
2021/10/10 12:01:51;;;;;;;8.18;4.72;;;;;;;;;;5113043;28;19915;-62
2021/10/10 12:04:17;;;;;;;9.77;4.53;;;;;;;;;;5112262;28;20070;-62
2021/10/10 12:06:45;;;;;;;9.40;6.10;;;;;;;;;;5113407;28;20055;-62
2021/10/10 12:09:11;;;;;;;12.48;5.88;;;;;;;;;;5113660;28;20609;-61
2021/10/10 12:11:38;;;;;;;9.48;4.18;;;;;;;;;;5113529;28;20032;-61
2021/10/10 12:14:04;;;;;;;10.43;6.43;;;;;;;;;;5113180;28;20047;-62
2021/10/10 12:16:39;;;;;;;13.05;6.25;;;;;;;;;;5113279;28;20020;-62
2021/10/10 12:19:04;;;;;;;27.52;18.50;;;;;;;;;;5113085;28;20085;-62
2021/10/10 12:21:31;;;;;;;13.52;6.55;;;;;;;;;;5113115;28;20126;-62
2021/10/10 12:24:06;;;;;;;14.20;8.52;;;;;;;;;;5112346;28;20114;-62
2021/10/10 12:26:51;;;;;;;15.15;13.02;;;;;;;;;;5112989;28;20077;-62
2021/10/10 12:29:18;;;;;;;12.15;7.47;;;;;;;;;;5113152;28;20070;-62
2021/10/10 12:31:43;;;;;;;11.50;5.80;;;;;;;;;;5112412;28;20048;-62
2021/10/10 12:34:10;;;;;;;13.45;8.23;;;;;;;;;;5113133;28;20126;-62
2021/10/10 12:36:48;;;;;;;13.48;6.97;;;;;;;;;;5112584;28;20051;-62
2021/10/10 12:39:14;;;;;;;8.60;4.75;;;;;;;;;;5112215;28;20063;-62
2021/10/10 12:41:40;;;;;;;13.48;6.70;;;;;;;;;;5112924;28;20447;-62
2021/10/10 12:44:08;;;;;;;10.05;5.82;;;;;;;;;;5112539;28;20127;-62
2021/10/10 12:46:49;;;;;;;8.52;6.10;;;;;;;;;;5112469;28;20031;-62
2021/10/10 12:49:14;;;;;;;;;;;;;;;;;;5112889;28;20120;-62
2021/10/10 12:51:47;;;;;;;21.20;11.18;;;;;;;;;;5112404;28;19907;-62
2021/10/10 12:54:14;;;;;;;30.55;14.95;;;;;;;;;;5112515;28;20063;-62
2021/10/10 12:56:40;;;;;;;35.53;17.05;;;;;;;;;;5093621;28;20682;-62
2021/10/10 12:59:07;;;;;;;10.73;6.80;;;;;;;;;;5112327;28;20039;-62
2021/10/10 13:01:33;;;;;;;22.63;13.43;;;;;;;;;;5111615;28;20051;-61
2021/10/10 13:04:00;;;;;;;8.88;5.70;;;;;;;;;;5093402;28;20055;-62
2021/10/10 13:06:26;;;;;;;11.80;6.28;;;;;;;;;;5111699;28;20043;-62
2021/10/10 13:08:52;;;;;;;11.55;7.45;;;;;;;;;;5112266;28;20403;-62
2021/10/10 13:11:19;;;;;;;39.28;18.23;;;;;;;;;;5093819;28;20571;-62
2021/10/10 13:13:46;;;;;;;12.18;7.57;;;;;;;;;;5111561;28;20036;-62
2021/10/10 13:16:12;;;;;;;8.70;5.97;;;;;;;;;;5111805;28;20080;-62
2021/10/10 13:18:37;;;;;;;11.05;6.65;;;;;;;;;;5111881;28;20039;-62
2021/10/10 13:21:03;;;;;;;14.38;8.63;;;;;;;;;;5112077;28;20073;-62
2021/10/10 13:23:29;;;;;;;23.38;12.68;;;;;;;;;;5111544;28;20052;-62
2021/10/10 13:25:54;;;;;;;15.25;7.03;;;;;;;;;;5111905;28;20114;-62
2021/10/10 13:28:20;;;;;;;28.73;13.60;;;;;;;;;;5113539;27;20155;-62
2021/10/10 13:30:47;;;;;;;10.07;5.97;;;;;;;;;;5131736;27;20055;-62
2021/10/10 13:33:13;;;;;;;14.52;6.60;;;;;;;;;;5131285;27;20096;-62
2021/10/10 13:35:39;;;;;;;12.63;7.50;;;;;;;;;;5132101;27;20039;-62
2021/10/10 13:38:04;;;;;;;8.35;6.15;;;;;;;;;;5132194;27;20031;-62
2021/10/10 13:40:30;;;;;;;16.50;8.68;;;;;;;;;;5132118;27;20420;-62
2021/10/10 13:42:55;;;;;;;19.88;10.20;;;;;;;;;;5131016;27;20047;-62
2021/10/10 13:45:21;;;;;;;18.25;8.25;;;;;;;;;;5131946;27;20035;-62
2021/10/10 13:47:46;;;;;;;11.75;8.13;;;;;;;;;;5114476;27;20047;-62
2021/10/10 13:50:11;;;;;;;22.10;12.13;;;;;;;;;;5111415;28;20023;-62
2021/10/10 13:52:39;;;;;;;44.80;19.92;;;;;;;;;;5111114;28;20062;-62
2021/10/10 13:55:06;;;;;;;18.48;9.95;;;;;;;;;;5111568;28;20032;-62
2021/10/10 13:57:32;;;;;;;16.20;10.43;;;;;;;;;;5092918;28;20032;-61
2021/10/10 13:59:58;;;;;;;12.40;7.35;;;;;;;;;;5110945;28;20023;-61
2021/10/10 14:02:24;;;;;;;15.75;7.80;;;;;;;;;;5110045;28;20048;-62
2021/10/10 14:04:50;;;;;;;13.13;7.20;;;;;;;;;;5114675;27;20050;-61
2021/10/10 14:07:15;;;;;;;12.18;6.38;;;;;;;;;;5122451;27;20503;-61
2021/10/10 14:09:41;;;;;;;14.85;9.68;;;;;;;;;;5131543;27;20058;-61
2021/10/10 14:12:07;;;;;;;12.68;6.78;;;;;;;;;;5131356;27;20043;-61
2021/10/10 14:14:32;;;;;;;11.57;7.03;;;;;;;;;;5131484;27;20027;-61
2021/10/10 14:16:58;;;;;;;8.38;6.32;;;;;;;;;;5134504;27;20035;-61
2021/10/10 14:19:24;;;;;;;11.10;7.00;;;;;;;;;;5134628;27;20110;-61
2021/10/10 14:21:50;;;;;;;11.75;7.38;;;;;;;;;;5134149;27;20114;-61
2021/10/10 14:24:15;;;;;;;49.13;18.23;;;;;;;;;;5133859;27;20019;-61
2021/10/10 14:26:41;;;;;;;13.25;8.05;;;;;;;;;;5115088;27;20045;-61